Marion, IL (62959)

3:38 PM CDT on August 28, 2015 (GMT -0500)
WB0VTM - HAM RADIO | | Change Station
CLOSE
Current Station
Personal Weather Station
Location: Marion, IL
Elevation: 492 ft
Nearby Weather Stations

Elev 492 ft 37.72 °N, 88.95 °W | Updated 13 seconds ago

Partly Cloudy
Partly Cloudy
86.9 °F
Feels Like 88 °F
N
0.0
Wind Variable Wind from South

Today
High -- | Low -- °F
--% Chance of Precip.
Yesterday
High -- | Low -- °F
Precip. -- in
6:22 AM 7:30 PM
Waxing Gibbous, 99% visible
Pressure 30.08 in
Visibility 20.0 miles
Clouds Few 5000 ft
Mostly Cloudy 25000 ft
Heat Index 88 °F
Dew Point 64 °F
Humidity 47%
Rainfall 0.00 in
Snow Depth Not available.
UV 4 out of 12
Pollen 10.10 out of 12
Air Quality Not available.
Flu Activity Not available.
METAR KMWA 281954Z 12007KT 20SM FEW050 BKN250 27/16 A3008
Pressure 30.08 in
Visibility 20.0 miles
Clouds Few 5000 ft
Mostly Cloudy 25000 ft
Heat Index 88 °F
Dew Point 64 °F
Humidity 47%
Rainfall 0.00 in
Snow Depth Not available.
UV 4 out of 12
Pollen 10.10 out of 12
Air Quality Not available.
Flu Activity Not available.
METAR KMWA 281954Z 12007KT 20SM FEW050 BKN250 27/16 A3008

10-Day Weather Forecast

×

Almanac

Astronomy

Aug. 28, 2015 Rise Set
Actual Time
Civil Twilight
Nautical Twilight
Astronomical Twilight
Moon
Length of Visible Light
Length of Day
Tomorrow will be .
, % of the Moon is Illuminated

Today's Extremes

State Highs State Lows

Community

WunderPhotos

Upload Photos

1,850,476 photos uploaded!

WunderBlogs® & News

Nearby

Air Quality

  Air Quality AQ Index Pollutant
Not available.

Snow Depth

Station Depth Elevation

Earthquake Activity

City Distance Mag. Time & Date
Minimum magnitude displayed is 2.5.

Coastal Water Temperatures

Place Temperature

Stations

Nearby Weather Stations

Station Location Temp. Windchill Dew Point Humidity Wind Precip. Elev Updated Type